sensor_id;sensor_type;location;lat;lon;timestamp;temperature;humidity
18335;DHT22;9293;49.524;10.964;2022-08-19T00:01:59;20.90;99.90
18335;DHT22;9293;49.524;10.964;2022-08-19T00:04:31;20.90;99.90
18335;DHT22;9293;49.524;10.964;2022-08-19T00:07:00;20.90;99.90
18335;DHT22;9293;49.524;10.964;2022-08-19T00:09:29;20.90;99.90
18335;DHT22;9293;49.524;10.964;2022-08-19T00:11:58;20.90;99.90
18335;DHT22;9293;49.524;10.964;2022-08-19T00:14:28;20.90;99.90
18335;DHT22;9293;49.524;10.964;2022-08-19T00:16:59;20.90;99.90
18335;DHT22;9293;49.524;10.964;2022-08-19T00:19:28;20.80;99.90
18335;DHT22;9293;49.524;10.964;2022-08-19T00:21:56;20.80;99.90
18335;DHT22;9293;49.524;10.964;2022-08-19T00:24:25;20.90;99.90
18335;DHT22;9293;49.524;10.964;2022-08-19T00:26:54;20.80;99.90
18335;DHT22;9293;49.524;10.964;2022-08-19T00:29:24;20.80;99.90
18335;DHT22;9293;49.524;10.964;2022-08-19T00:31:53;20.80;99.90
18335;DHT22;9293;49.524;10.964;2022-08-19T00:34:26;20.80;99.90
18335;DHT22;9293;49.524;10.964;2022-08-19T00:36:58;20.80;99.90
18335;DHT22;9293;49.524;10.964;2022-08-19T00:39:27;20.80;99.90
18335;DHT22;9293;49.524;10.964;2022-08-19T00:41:55;20.80;99.90
18335;DHT22;9293;49.524;10.964;2022-08-19T00:44:27;20.80;99.90
18335;DHT22;9293;49.524;10.964;2022-08-19T00:46:57;20.80;99.90
18335;DHT22;9293;49.524;10.964;2022-08-19T00:49:56;20.70;99.90
18335;DHT22;9293;49.524;10.964;2022-08-19T00:52:32;20.70;99.90
18335;DHT22;9293;49.524;10.964;2022-08-19T00:55:02;20.70;99.90
18335;DHT22;9293;49.524;10.964;2022-08-19T00:57:36;20.60;99.90
18335;DHT22;9293;49.524;10.964;2022-08-19T01:00:12;20.60;99.90
18335;DHT22;9293;49.524;10.964;2022-08-19T01:02:44;20.60;99.90
18335;DHT22;9293;49.524;10.964;2022-08-19T01:05:22;20.70;99.90
18335;DHT22;9293;49.524;10.964;2022-08-19T01:07:51;20.70;99.90
18335;DHT22;9293;49.524;10.964;2022-08-19T01:10:25;20.80;99.90
18335;DHT22;9293;49.524;10.964;2022-08-19T01:12:55;20.80;99.90
18335;DHT22;9293;49.524;10.964;2022-08-19T01:15:28;20.80;99.90
18335;DHT22;9293;49.524;10.964;2022-08-19T01:18:00;20.80;99.90
18335;DHT22;9293;49.524;10.964;2022-08-19T01:20:29;20.70;99.90
18335;DHT22;9293;49.524;10.964;2022-08-19T01:22:58;20.60;99.90
18335;DHT22;9293;49.524;10.964;2022-08-19T01:25:32;20.60;99.90
18335;DHT22;9293;49.524;10.964;2022-08-19T01:28:06;20.70;99.90
18335;DHT22;9293;49.524;10.964;2022-08-19T01:30:37;20.70;99.90
18335;DHT22;9293;49.524;10.964;2022-08-19T01:33:10;20.80;99.90
18335;DHT22;9293;49.524;10.964;2022-08-19T01:35:39;20.80;99.90
18335;DHT22;9293;49.524;10.964;2022-08-19T01:38:18;20.80;99.90
18335;DHT22;9293;49.524;10.964;2022-08-19T01:40:47;20.80;99.90
18335;DHT22;9293;49.524;10.964;2022-08-19T01:43:15;20.80;99.90
18335;DHT22;9293;49.524;10.964;2022-08-19T01:45:43;20.80;99.90
18335;DHT22;9293;49.524;10.964;2022-08-19T01:48:12;20.80;99.90
18335;DHT22;9293;49.524;10.964;2022-08-19T01:50:40;20.90;99.90
18335;DHT22;9293;49.524;10.964;2022-08-19T01:53:10;20.80;99.90
18335;DHT22;9293;49.524;10.964;2022-08-19T01:55:40;20.70;99.90
18335;DHT22;9293;49.524;10.964;2022-08-19T01:58:16;20.70;99.90
18335;DHT22;9293;49.524;10.964;2022-08-19T02:00:45;20.70;99.90
18335;DHT22;9293;49.524;10.964;2022-08-19T02:03:15;20.60;99.90
18335;DHT22;9293;49.524;10.964;2022-08-19T02:05:44;20.60;99.90
18335;DHT22;9293;49.524;10.964;2022-08-19T02:08:13;20.60;99.90
18335;DHT22;9293;49.524;10.964;2022-08-19T02:10:43;20.70;99.90
18335;DHT22;9293;49.524;10.964;2022-08-19T02:13:12;20.70;99.90
18335;DHT22;9293;49.524;10.964;2022-08-19T02:15:46;20.80;99.90
18335;DHT22;9293;49.524;10.964;2022-08-19T02:18:15;20.80;99.90
18335;DHT22;9293;49.524;10.964;2022-08-19T02:20:44;20.80;99.90
18335;DHT22;9293;49.524;10.964;2022-08-19T02:23:13;20.80;99.90
18335;DHT22;9293;49.524;10.964;2022-08-19T02:25:47;20.60;99.90
18335;DHT22;9293;49.524;10.964;2022-08-19T02:28:16;20.70;99.90
18335;DHT22;9293;49.524;10.964;2022-08-19T02:30:46;20.70;99.90
18335;DHT22;9293;49.524;10.964;2022-08-19T02:33:18;20.80;99.90
18335;DHT22;9293;49.524;10.964;2022-08-19T02:35:49;20.80;99.90
18335;DHT22;9293;49.524;10.964;2022-08-19T02:38:17;20.80;99.90
18335;DHT22;9293;49.524;10.964;2022-08-19T02:41:00;20.80;99.90
18335;DHT22;9293;49.524;10.964;2022-08-19T02:43:31;20.90;99.90
18335;DHT22;9293;49.524;10.964;2022-08-19T02:46:00;20.90;99.90
18335;DHT22;9293;49.524;10.964;2022-08-19T02:48:28;20.90;99.90
18335;DHT22;9293;49.524;10.964;2022-08-19T02:50:57;20.90;99.90
18335;DHT22;9293;49.524;10.964;2022-08-19T02:53:27;20.90;99.90
18335;DHT22;9293;49.524;10.964;2022-08-19T02:55:55;20.80;99.90
18335;DHT22;9293;49.524;10.964;2022-08-19T02:58:24;20.90;99.90
18335;DHT22;9293;49.524;10.964;2022-08-19T03:00:54;20.80;99.90
18335;DHT22;9293;49.524;10.964;2022-08-19T03:03:23;20.90;99.90
18335;DHT22;9293;49.524;10.964;2022-08-19T03:05:51;20.80;99.90
18335;DHT22;9293;49.524;10.964;2022-08-19T03:08:24;20.80;99.90
18335;DHT22;9293;49.524;10.964;2022-08-19T03:10:53;20.70;99.90
18335;DHT22;9293;49.524;10.964;2022-08-19T03:13:22;20.70;99.90
18335;DHT22;9293;49.524;10.964;2022-08-19T03:15:51;20.80;99.90
18335;DHT22;9293;49.524;10.964;2022-08-19T03:18:19;20.80;99.90
18335;DHT22;9293;49.524;10.964;2022-08-19T03:20:50;20.80;99.90
18335;DHT22;9293;49.524;10.964;2022-08-19T03:23:20;20.80;99.90
18335;DHT22;9293;49.524;10.964;2022-08-19T03:25:51;20.80;99.90
18335;DHT22;9293;49.524;10.964;2022-08-19T03:28:32;20.80;99.90
18335;DHT22;9293;49.524;10.964;2022-08-19T03:31:12;20.80;99.90
18335;DHT22;9293;49.524;10.964;2022-08-19T03:34:00;20.70;99.90
18335;DHT22;9293;49.524;10.964;2022-08-19T03:36:29;20.60;99.90
18335;DHT22;9293;49.524;10.964;2022-08-19T03:38:59;20.70;99.90
18335;DHT22;9293;49.524;10.964;2022-08-19T03:41:35;20.70;99.90
18335;DHT22;9293;49.524;10.964;2022-08-19T03:44:17;20.70;99.90
18335;DHT22;9293;49.524;10.964;2022-08-19T03:46:58;20.70;99.90
18335;DHT22;9293;49.524;10.964;2022-08-19T03:49:28;20.70;99.90
18335;DHT22;9293;49.524;10.964;2022-08-19T03:51:58;20.70;99.90
18335;DHT22;9293;49.524;10.964;2022-08-19T03:54:28;20.70;99.90
18335;DHT22;9293;49.524;10.964;2022-08-19T03:56:57;20.70;99.90
18335;DHT22;9293;49.524;10.964;2022-08-19T03:59:31;20.70;99.90
18335;DHT22;9293;49.524;10.964;2022-08-19T04:02:03;20.70;99.90
18335;DHT22;9293;49.524;10.964;2022-08-19T04:04:33;20.70;99.90
18335;DHT22;9293;49.524;10.964;2022-08-19T04:07:01;20.70;99.90
18335;DHT22;9293;49.524;10.964;2022-08-19T04:09:29;20.70;99.90
18335;DHT22;9293;49.524;10.964;2022-08-19T04:11:58;20.60;99.90
18335;DHT22;9293;49.524;10.964;2022-08-19T04:14:28;20.60;99.90
18335;DHT22;9293;49.524;10.964;2022-08-19T04:17:03;20.60;99.90
18335;DHT22;9293;49.524;10.964;2022-08-19T04:19:34;20.60;99.90
18335;DHT22;9293;49.524;10.964;2022-08-19T04:22:07;20.60;99.90
18335;DHT22;9293;49.524;10.964;2022-08-19T04:24:36;20.60;99.90
18335;DHT22;9293;49.524;10.964;2022-08-19T04:27:05;20.60;99.90
18335;DHT22;9293;49.524;10.964;2022-08-19T04:29:34;20.70;99.90
18335;DHT22;9293;49.524;10.964;2022-08-19T04:32:03;20.70;99.90
18335;DHT22;9293;49.524;10.964;2022-08-19T04:34:35;20.70;99.90
18335;DHT22;9293;49.524;10.964;2022-08-19T04:37:28;20.70;99.90
18335;DHT22;9293;49.524;10.964;2022-08-19T04:40:02;20.60;99.90
18335;DHT22;9293;49.524;10.964;2022-08-19T04:42:49;20.70;99.90
18335;DHT22;9293;49.524;10.964;2022-08-19T04:45:17;20.60;99.90
18335;DHT22;9293;49.524;10.964;2022-08-19T04:47:49;20.60;99.90
18335;DHT22;9293;49.524;10.964;2022-08-19T04:50:41;20.60;99.90
18335;DHT22;9293;49.524;10.964;2022-08-19T04:53:10;20.60;99.90
18335;DHT22;9293;49.524;10.964;2022-08-19T04:59:32;20.60;99.90
18335;DHT22;9293;49.524;10.964;2022-08-19T05:02:02;20.60;99.90
18335;DHT22;9293;49.524;10.964;2022-08-19T05:04:30;20.70;99.90
18335;DHT22;9293;49.524;10.964;2022-08-19T05:07:00;20.70;99.90
18335;DHT22;9293;49.524;10.964;2022-08-19T05:09:29;20.60;99.90
18335;DHT22;9293;49.524;10.964;2022-08-19T05:12:18;20.70;99.90
18335;DHT22;9293;49.524;10.964;2022-08-19T05:14:47;20.60;99.90
18335;DHT22;9293;49.524;10.964;2022-08-19T05:17:15;20.60;99.90
18335;DHT22;9293;49.524;10.964;2022-08-19T05:20:06;20.60;99.90
18335;DHT22;9293;49.524;10.964;2022-08-19T05:22:53;20.60;99.90
18335;DHT22;9293;49.524;10.964;2022-08-19T05:25:22;20.70;99.90
18335;DHT22;9293;49.524;10.964;2022-08-19T05:27:50;20.60;99.90
18335;DHT22;9293;49.524;10.964;2022-08-19T05:30:18;20.60;99.90
18335;DHT22;9293;49.524;10.964;2022-08-19T05:32:59;20.60;99.90
18335;DHT22;9293;49.524;10.964;2022-08-19T05:35:27;20.60;99.90
18335;DHT22;9293;49.524;10.964;2022-08-19T05:38:00;20.60;99.90
18335;DHT22;9293;49.524;10.964;2022-08-19T05:40:29;20.60;99.90
18335;DHT22;9293;49.524;10.964;2022-08-19T05:42:57;20.70;99.90
18335;DHT22;9293;49.524;10.964;2022-08-19T05:45:25;20.70;99.90
18335;DHT22;9293;49.524;10.964;2022-08-19T05:47:53;20.70;99.90
18335;DHT22;9293;49.524;10.964;2022-08-19T05:50:22;20.80;99.90
18335;DHT22;9293;49.524;10.964;2022-08-19T05:52:50;20.80;99.90
18335;DHT22;9293;49.524;10.964;2022-08-19T05:55:18;20.80;99.90
18335;DHT22;9293;49.524;10.964;2022-08-19T05:57:52;20.90;99.90
18335;DHT22;9293;49.524;10.964;2022-08-19T06:00:24;20.90;99.90
18335;DHT22;9293;49.524;10.964;2022-08-19T06:02:52;20.90;99.90
18335;DHT22;9293;49.524;10.964;2022-08-19T06:05:39;21.00;99.90
18335;DHT22;9293;49.524;10.964;2022-08-19T06:08:17;21.10;99.90
18335;DHT22;9293;49.524;10.964;2022-08-19T06:11:16;21.10;99.90
18335;DHT22;9293;49.524;10.964;2022-08-19T06:13:48;21.20;99.90
18335;DHT22;9293;49.524;10.964;2022-08-19T06:16:29;21.40;99.90
18335;DHT22;9293;49.524;10.964;2022-08-19T06:19:04;21.50;99.90
18335;DHT22;9293;49.524;10.964;2022-08-19T06:21:36;21.60;99.90
18335;DHT22;9293;49.524;10.964;2022-08-19T06:24:11;21.70;99.90
18335;DHT22;9293;49.524;10.964;2022-08-19T06:26:42;21.90;99.90
18335;DHT22;9293;49.524;10.964;2022-08-19T06:29:16;22.10;99.90
18335;DHT22;9293;49.524;10.964;2022-08-19T06:31:52;22.20;99.90
18335;DHT22;9293;49.524;10.964;2022-08-19T06:34:21;22.40;99.90
18335;DHT22;9293;49.524;10.964;2022-08-19T06:41:13;22.50;99.90
18335;DHT22;9293;49.524;10.964;2022-08-19T06:44:04;22.60;99.90
18335;DHT22;9293;49.524;10.964;2022-08-19T06:47:17;22.70;99.90
18335;DHT22;9293;49.524;10.964;2022-08-19T06:54:00;23.20;99.90
18335;DHT22;9293;49.524;10.964;2022-08-19T06:57:24;23.60;99.90
18335;DHT22;9293;49.524;10.964;2022-08-19T07:00:11;23.60;99.90
18335;DHT22;9293;49.524;10.964;2022-08-19T07:03:09;23.40;99.90
18335;DHT22;9293;49.524;10.964;2022-08-19T07:06:20;23.10;99.90
18335;DHT22;9293;49.524;10.964;2022-08-19T07:09:18;23.00;99.90
18335;DHT22;9293;49.524;10.964;2022-08-19T07:12:01;22.80;99.90
18335;DHT22;9293;49.524;10.964;2022-08-19T07:14:33;22.70;99.90
18335;DHT22;9293;49.524;10.964;2022-08-19T07:17:08;22.70;99.90
18335;DHT22;9293;49.524;10.964;2022-08-19T07:19:40;22.60;99.90
18335;DHT22;9293;49.524;10.964;2022-08-19T07:22:10;22.60;99.90
18335;DHT22;9293;49.524;10.964;2022-08-19T07:24:39;22.60;99.90
18335;DHT22;9293;49.524;10.964;2022-08-19T07:27:18;22.60;99.90
18335;DHT22;9293;49.524;10.964;2022-08-19T07:29:54;22.60;99.90
18335;DHT22;9293;49.524;10.964;2022-08-19T07:32:25;22.50;99.90
18335;DHT22;9293;49.524;10.964;2022-08-19T07:34:55;22.60;99.90
18335;DHT22;9293;49.524;10.964;2022-08-19T07:37:30;22.50;99.90
18335;DHT22;9293;49.524;10.964;2022-08-19T07:40:00;22.50;99.90
18335;DHT22;9293;49.524;10.964;2022-08-19T07:42:29;22.50;99.90
18335;DHT22;9293;49.524;10.964;2022-08-19T07:44:58;22.40;99.90
18335;DHT22;9293;49.524;10.964;2022-08-19T07:47:27;22.40;99.90
18335;DHT22;9293;49.524;10.964;2022-08-19T07:50:17;22.40;99.90
18335;DHT22;9293;49.524;10.964;2022-08-19T07:52:48;22.20;99.90
18335;DHT22;9293;49.524;10.964;2022-08-19T07:55:23;22.10;99.90
18335;DHT22;9293;49.524;10.964;2022-08-19T07:58:09;22.10;99.90
18335;DHT22;9293;49.524;10.964;2022-08-19T08:00:42;22.00;99.90
18335;DHT22;9293;49.524;10.964;2022-08-19T08:03:17;22.00;99.90
18335;DHT22;9293;49.524;10.964;2022-08-19T08:05:46;22.10;99.90
18335;DHT22;9293;49.524;10.964;2022-08-19T08:08:33;22.00;99.90
18335;DHT22;9293;49.524;10.964;2022-08-19T08:11:16;22.00;99.90
18335;DHT22;9293;49.524;10.964;2022-08-19T08:13:47;22.10;99.90
18335;DHT22;9293;49.524;10.964;2022-08-19T08:16:37;22.20;99.90
18335;DHT22;9293;49.524;10.964;2022-08-19T08:19:13;22.20;99.90
18335;DHT22;9293;49.524;10.964;2022-08-19T08:21:53;22.10;99.90
18335;DHT22;9293;49.524;10.964;2022-08-19T08:24:21;22.20;99.90
18335;DHT22;9293;49.524;10.964;2022-08-19T08:26:55;22.20;99.90
18335;DHT22;9293;49.524;10.964;2022-08-19T08:29:24;22.30;99.90
18335;DHT22;9293;49.524;10.964;2022-08-19T08:32:01;22.30;99.90
18335;DHT22;9293;49.524;10.964;2022-08-19T08:34:39;22.30;99.90
18335;DHT22;9293;49.524;10.964;2022-08-19T08:37:07;22.30;99.90
18335;DHT22;9293;49.524;10.964;2022-08-19T08:39:35;22.40;99.90
18335;DHT22;9293;49.524;10.964;2022-08-19T08:42:24;22.50;99.90
18335;DHT22;9293;49.524;10.964;2022-08-19T08:45:08;22.70;99.90
18335;DHT22;9293;49.524;10.964;2022-08-19T08:47:45;22.90;99.90
18335;DHT22;9293;49.524;10.964;2022-08-19T08:50:44;23.10;99.90
18335;DHT22;9293;49.524;10.964;2022-08-19T08:53:16;23.20;99.90
18335;DHT22;9293;49.524;10.964;2022-08-19T08:56:00;23.20;99.90
18335;DHT22;9293;49.524;10.964;2022-08-19T08:58:42;23.00;99.90
18335;DHT22;9293;49.524;10.964;2022-08-19T09:01:20;22.80;99.90
18335;DHT22;9293;49.524;10.964;2022-08-19T09:03:48;22.70;99.90
18335;DHT22;9293;49.524;10.964;2022-08-19T09:17:26;22.20;99.90
18335;DHT22;9293;49.524;10.964;2022-08-19T09:22:42;22.30;99.90
18335;DHT22;9293;49.524;10.964;2022-08-19T09:25:19;22.30;99.90
18335;DHT22;9293;49.524;10.964;2022-08-19T09:27:53;22.30;99.90
18335;DHT22;9293;49.524;10.964;2022-08-19T09:30:32;22.40;99.90
18335;DHT22;9293;49.524;10.964;2022-08-19T09:33:00;22.40;99.90
18335;DHT22;9293;49.524;10.964;2022-08-19T09:35:29;22.50;99.90
18335;DHT22;9293;49.524;10.964;2022-08-19T09:38:15;22.50;99.90
18335;DHT22;9293;49.524;10.964;2022-08-19T09:40:43;22.50;99.90
18335;DHT22;9293;49.524;10.964;2022-08-19T09:43:11;22.60;99.90
18335;DHT22;9293;49.524;10.964;2022-08-19T09:45:40;22.50;99.90
18335;DHT22;9293;49.524;10.964;2022-08-19T09:48:08;22.50;99.90
18335;DHT22;9293;49.524;10.964;2022-08-19T09:50:40;22.50;99.90
18335;DHT22;9293;49.524;10.964;2022-08-19T09:53:18;22.50;99.90
18335;DHT22;9293;49.524;10.964;2022-08-19T09:55:50;22.50;99.90
18335;DHT22;9293;49.524;10.964;2022-08-19T09:58:24;22.60;99.90
18335;DHT22;9293;49.524;10.964;2022-08-19T10:00:56;22.80;99.90
18335;DHT22;9293;49.524;10.964;2022-08-19T10:03:27;22.80;99.90
18335;DHT22;9293;49.524;10.964;2022-08-19T10:05:58;22.80;99.90
18335;DHT22;9293;49.524;10.964;2022-08-19T10:08:29;22.70;99.90
18335;DHT22;9293;49.524;10.964;2022-08-19T10:10:58;22.70;99.90
18335;DHT22;9293;49.524;10.964;2022-08-19T10:13:47;22.70;99.90
18335;DHT22;9293;49.524;10.964;2022-08-19T10:16:20;22.60;99.90
18335;DHT22;9293;49.524;10.964;2022-08-19T10:18:56;22.60;99.90
18335;DHT22;9293;49.524;10.964;2022-08-19T10:21:30;22.50;99.90
18335;DHT22;9293;49.524;10.964;2022-08-19T10:24:05;22.50;99.90
18335;DHT22;9293;49.524;10.964;2022-08-19T10:26:39;22.40;99.90
18335;DHT22;9293;49.524;10.964;2022-08-19T10:29:12;22.50;99.90
18335;DHT22;9293;49.524;10.964;2022-08-19T10:32:03;22.60;99.90
18335;DHT22;9293;49.524;10.964;2022-08-19T10:34:38;22.60;99.90
18335;DHT22;9293;49.524;10.964;2022-08-19T10:37:16;22.70;99.90
18335;DHT22;9293;49.524;10.964;2022-08-19T10:39:54;22.70;99.90
18335;DHT22;9293;49.524;10.964;2022-08-19T10:42:25;22.80;99.90
18335;DHT22;9293;49.524;10.964;2022-08-19T10:44:54;22.80;99.90
18335;DHT22;9293;49.524;10.964;2022-08-19T10:47:25;22.90;99.90
18335;DHT22;9293;49.524;10.964;2022-08-19T10:49:57;23.00;99.90
18335;DHT22;9293;49.524;10.964;2022-08-19T10:52:47;22.80;99.90
18335;DHT22;9293;49.524;10.964;2022-08-19T10:55:20;22.70;99.90
18335;DHT22;9293;49.524;10.964;2022-08-19T10:58:13;22.80;99.90
18335;DHT22;9293;49.524;10.964;2022-08-19T11:00:42;22.90;99.90
18335;DHT22;9293;49.524;10.964;2022-08-19T11:03:12;23.00;99.90
18335;DHT22;9293;49.524;10.964;2022-08-19T11:05:57;22.90;99.90
18335;DHT22;9293;49.524;10.964;2022-08-19T11:08:25;23.00;99.90
18335;DHT22;9293;49.524;10.964;2022-08-19T11:10:58;23.00;99.90
18335;DHT22;9293;49.524;10.964;2022-08-19T11:13:33;23.00;99.90
18335;DHT22;9293;49.524;10.964;2022-08-19T11:16:10;22.90;99.90
18335;DHT22;9293;49.524;10.964;2022-08-19T11:18:41;22.90;99.90
18335;DHT22;9293;49.524;10.964;2022-08-19T11:21:20;22.90;99.90
18335;DHT22;9293;49.524;10.964;2022-08-19T11:23:50;22.90;99.90
18335;DHT22;9293;49.524;10.964;2022-08-19T11:26:19;23.00;99.90
18335;DHT22;9293;49.524;10.964;2022-08-19T11:28:49;22.90;99.90
18335;DHT22;9293;49.524;10.964;2022-08-19T11:31:22;22.90;99.90
18335;DHT22;9293;49.524;10.964;2022-08-19T11:33:59;22.90;99.90
18335;DHT22;9293;49.524;10.964;2022-08-19T11:36:29;22.90;99.90
18335;DHT22;9293;49.524;10.964;2022-08-19T11:39:00;22.90;99.90
18335;DHT22;9293;49.524;10.964;2022-08-19T11:41:28;22.90;99.90
18335;DHT22;9293;49.524;10.964;2022-08-19T11:43:56;23.00;99.90
18335;DHT22;9293;49.524;10.964;2022-08-19T11:46:26;23.00;99.90
18335;DHT22;9293;49.524;10.964;2022-08-19T11:48:58;23.00;99.90
18335;DHT22;9293;49.524;10.964;2022-08-19T11:51:28;23.00;99.90
18335;DHT22;9293;49.524;10.964;2022-08-19T11:53:58;23.00;99.90
18335;DHT22;9293;49.524;10.964;2022-08-19T11:56:28;22.90;99.90
18335;DHT22;9293;49.524;10.964;2022-08-19T11:58:56;22.80;99.90
18335;DHT22;9293;49.524;10.964;2022-08-19T12:01:26;22.80;99.90
18335;DHT22;9293;49.524;10.964;2022-08-19T12:03:55;22.80;99.90
18335;DHT22;9293;49.524;10.964;2022-08-19T12:06:26;22.80;99.90
18335;DHT22;9293;49.524;10.964;2022-08-19T12:08:58;22.80;99.90
18335;DHT22;9293;49.524;10.964;2022-08-19T12:11:26;22.80;99.90
18335;DHT22;9293;49.524;10.964;2022-08-19T12:14:00;22.80;99.90
18335;DHT22;9293;49.524;10.964;2022-08-19T12:16:29;22.70;99.90
18335;DHT22;9293;49.524;10.964;2022-08-19T12:18:59;22.70;99.90
18335;DHT22;9293;49.524;10.964;2022-08-19T12:21:33;22.60;99.90
18335;DHT22;9293;49.524;10.964;2022-08-19T12:24:03;22.60;99.90
18335;DHT22;9293;49.524;10.964;2022-08-19T12:26:35;22.60;99.90
18335;DHT22;9293;49.524;10.964;2022-08-19T12:29:19;22.40;99.90
18335;DHT22;9293;49.524;10.964;2022-08-19T12:31:50;22.20;99.90
18335;DHT22;9293;49.524;10.964;2022-08-19T12:34:18;22.10;99.90
18335;DHT22;9293;49.524;10.964;2022-08-19T12:36:47;21.90;99.90
18335;DHT22;9293;49.524;10.964;2022-08-19T12:39:16;21.70;99.90
18335;DHT22;9293;49.524;10.964;2022-08-19T12:41:44;21.60;99.90
18335;DHT22;9293;49.524;10.964;2022-08-19T12:44:21;21.60;99.90
18335;DHT22;9293;49.524;10.964;2022-08-19T12:46:56;21.60;99.90
18335;DHT22;9293;49.524;10.964;2022-08-19T12:49:24;21.60;99.90
18335;DHT22;9293;49.524;10.964;2022-08-19T12:52:16;21.50;99.90
18335;DHT22;9293;49.524;10.964;2022-08-19T12:54:49;21.50;99.90
18335;DHT22;9293;49.524;10.964;2022-08-19T12:57:22;21.50;99.90
18335;DHT22;9293;49.524;10.964;2022-08-19T13:00:08;21.50;99.90
18335;DHT22;9293;49.524;10.964;2022-08-19T13:02:41;21.50;99.90
18335;DHT22;9293;49.524;10.964;2022-08-19T13:05:14;21.50;99.90
18335;DHT22;9293;49.524;10.964;2022-08-19T13:07:43;21.50;99.90
18335;DHT22;9293;49.524;10.964;2022-08-19T13:10:14;21.40;99.90
18335;DHT22;9293;49.524;10.964;2022-08-19T13:12:44;21.40;99.90
18335;DHT22;9293;49.524;10.964;2022-08-19T13:15:13;21.50;99.90
18335;DHT22;9293;49.524;10.964;2022-08-19T13:17:48;21.50;99.90
18335;DHT22;9293;49.524;10.964;2022-08-19T13:20:20;21.50;99.90
18335;DHT22;9293;49.524;10.964;2022-08-19T13:22:49;21.50;99.90
18335;DHT22;9293;49.524;10.964;2022-08-19T13:25:19;21.50;99.90
18335;DHT22;9293;49.524;10.964;2022-08-19T13:27:51;21.60;99.90
18335;DHT22;9293;49.524;10.964;2022-08-19T13:30:23;21.60;99.90
18335;DHT22;9293;49.524;10.964;2022-08-19T13:33:10;21.60;99.90
18335;DHT22;9293;49.524;10.964;2022-08-19T13:35:59;21.60;99.90
18335;DHT22;9293;49.524;10.964;2022-08-19T13:38:28;21.60;99.90
18335;DHT22;9293;49.524;10.964;2022-08-19T13:41:04;21.60;99.90
18335;DHT22;9293;49.524;10.964;2022-08-19T13:43:38;21.60;99.90
18335;DHT22;9293;49.524;10.964;2022-08-19T13:46:11;21.50;99.90
18335;DHT22;9293;49.524;10.964;2022-08-19T13:48:47;21.50;99.90
18335;DHT22;9293;49.524;10.964;2022-08-19T13:51:17;21.50;99.90
18335;DHT22;9293;49.524;10.964;2022-08-19T13:53:45;21.50;99.90
18335;DHT22;9293;49.524;10.964;2022-08-19T13:56:16;21.50;99.90
18335;DHT22;9293;49.524;10.964;2022-08-19T13:58:51;21.50;99.90
18335;DHT22;9293;49.524;10.964;2022-08-19T14:01:21;21.50;99.90
18335;DHT22;9293;49.524;10.964;2022-08-19T14:03:50;21.50;99.90
18335;DHT22;9293;49.524;10.964;2022-08-19T14:06:19;21.40;99.90
18335;DHT22;9293;49.524;10.964;2022-08-19T14:08:47;21.50;99.90
18335;DHT22;9293;49.524;10.964;2022-08-19T14:11:15;21.50;99.90
18335;DHT22;9293;49.524;10.964;2022-08-19T14:13:48;21.50;99.90
18335;DHT22;9293;49.524;10.964;2022-08-19T14:16:17;21.50;99.90
18335;DHT22;9293;49.524;10.964;2022-08-19T14:18:45;21.50;99.90
18335;DHT22;9293;49.524;10.964;2022-08-19T14:21:20;21.50;99.90
18335;DHT22;9293;49.524;10.964;2022-08-19T14:23:48;21.40;99.90
18335;DHT22;9293;49.524;10.964;2022-08-19T14:26:18;21.40;99.90
18335;DHT22;9293;49.524;10.964;2022-08-19T14:28:50;21.40;99.90
18335;DHT22;9293;49.524;10.964;2022-08-19T14:31:20;21.20;99.90
18335;DHT22;9293;49.524;10.964;2022-08-19T14:33:56;21.20;99.90
18335;DHT22;9293;49.524;10.964;2022-08-19T14:36:28;21.20;99.90
18335;DHT22;9293;49.524;10.964;2022-08-19T14:38:56;21.20;99.90
18335;DHT22;9293;49.524;10.964;2022-08-19T14:41:25;21.20;99.90
18335;DHT22;9293;49.524;10.964;2022-08-19T14:43:54;21.10;99.90
18335;DHT22;9293;49.524;10.964;2022-08-19T14:46:25;21.10;99.90
18335;DHT22;9293;49.524;10.964;2022-08-19T14:48:55;21.00;99.90
18335;DHT22;9293;49.524;10.964;2022-08-19T14:51:25;21.00;99.90
18335;DHT22;9293;49.524;10.964;2022-08-19T14:53:56;20.90;99.90
18335;DHT22;9293;49.524;10.964;2022-08-19T14:56:27;20.80;99.90
18335;DHT22;9293;49.524;10.964;2022-08-19T14:58:56;20.70;99.90
18335;DHT22;9293;49.524;10.964;2022-08-19T15:01:27;20.70;99.90
18335;DHT22;9293;49.524;10.964;2022-08-19T15:03:55;20.60;99.90
18335;DHT22;9293;49.524;10.964;2022-08-19T15:06:25;20.50;99.90
18335;DHT22;9293;49.524;10.964;2022-08-19T15:08:53;20.60;99.90
18335;DHT22;9293;49.524;10.964;2022-08-19T15:11:28;20.50;99.90
18335;DHT22;9293;49.524;10.964;2022-08-19T15:13:56;20.50;99.90
18335;DHT22;9293;49.524;10.964;2022-08-19T15:16:27;20.50;99.90
18335;DHT22;9293;49.524;10.964;2022-08-19T15:18:58;20.50;99.90
18335;DHT22;9293;49.524;10.964;2022-08-19T15:21:29;20.40;99.90
18335;DHT22;9293;49.524;10.964;2022-08-19T15:23:58;20.40;99.90
18335;DHT22;9293;49.524;10.964;2022-08-19T15:26:26;20.30;99.90
18335;DHT22;9293;49.524;10.964;2022-08-19T15:28:59;20.30;99.90
18335;DHT22;9293;49.524;10.964;2022-08-19T15:31:31;20.10;99.90
18335;DHT22;9293;49.524;10.964;2022-08-19T15:34:04;20.10;99.90
18335;DHT22;9293;49.524;10.964;2022-08-19T15:36:35;20.20;99.90
18335;DHT22;9293;49.524;10.964;2022-08-19T15:39:04;20.20;99.90
18335;DHT22;9293;49.524;10.964;2022-08-19T15:41:33;20.20;99.90
18335;DHT22;9293;49.524;10.964;2022-08-19T15:44:05;20.10;99.90
18335;DHT22;9293;49.524;10.964;2022-08-19T15:46:40;20.10;99.90
18335;DHT22;9293;49.524;10.964;2022-08-19T15:49:10;19.90;99.90
18335;DHT22;9293;49.524;10.964;2022-08-19T15:51:39;19.90;99.90
18335;DHT22;9293;49.524;10.964;2022-08-19T15:54:13;20.00;99.90
18335;DHT22;9293;49.524;10.964;2022-08-19T15:56:42;20.00;99.90
18335;DHT22;9293;49.524;10.964;2022-08-19T15:59:34;19.90;99.90
18335;DHT22;9293;49.524;10.964;2022-08-19T16:02:26;19.90;99.90
18335;DHT22;9293;49.524;10.964;2022-08-19T16:05:17;19.90;99.90
18335;DHT22;9293;49.524;10.964;2022-08-19T16:08:04;19.90;99.90
18335;DHT22;9293;49.524;10.964;2022-08-19T16:10:32;19.80;99.90
18335;DHT22;9293;49.524;10.964;2022-08-19T16:13:01;19.80;99.90
18335;DHT22;9293;49.524;10.964;2022-08-19T16:15:30;19.80;99.90
18335;DHT22;9293;49.524;10.964;2022-08-19T16:17:58;19.80;99.90
18335;DHT22;9293;49.524;10.964;2022-08-19T16:20:29;19.80;99.90
18335;DHT22;9293;49.524;10.964;2022-08-19T16:23:02;19.70;99.90
18335;DHT22;9293;49.524;10.964;2022-08-19T16:25:33;19.70;99.90
18335;DHT22;9293;49.524;10.964;2022-08-19T16:28:01;19.70;99.90
18335;DHT22;9293;49.524;10.964;2022-08-19T16:30:36;19.60;99.90
18335;DHT22;9293;49.524;10.964;2022-08-19T16:33:05;19.60;99.90
18335;DHT22;9293;49.524;10.964;2022-08-19T16:35:33;19.60;99.90